Flight Track Log - Related Links

Times and Time Zones

All times are in EST time to prevent confusion due to time zone crossing. See the UAL1116 flight status page for this flight to view local times or setup timezone preferences in your user account.

Time Position Orientation Groundspeed Altitude Reporting Facility
EST Latitude Longitude Course Direction KTS MPH feet Rate Location/Type
Mon 11:57:00 PM 38.4681 -117.8229 81° East  Level Estimated
Mon 11:58:00 PM 38.4970 -117.6649 77° East  Level FlightAware Approximate
Mon 11:59:00 PM 38.5257 -117.5067 77° East  Level FlightAware Approximate
Tue 12:00:00 AM 38.5513 -117.3476 81° East  Level Estimated
Tue 12:01:00 AM 38.5792 -117.1892 77° East  Level FlightAware Approximate
Tue 12:02:00 AM 38.6069 -117.0305 77° East  Level FlightAware Approximate
Tue 12:03:00 AM 38.6344 -116.8718 77° East  Level FlightAware Approximate
Tue 12:04:00 AM 38.6617 -116.7130 78° East  Level FlightAware Approximate
Tue 12:05:00 AM 38.6861 -116.5533 77° East  Level Estimated
Tue 12:06:00 AM 38.7140 -116.3945 77° East  Level FlightAware Approximate
Tue 12:07:00 AM 38.7417 -116.2356 77° East  Level FlightAware Approximate
Tue 12:08:00 AM 38.7691 -116.0765 77° East  Level FlightAware Approximate
Tue 12:09:00 AM 38.7925 -115.9164 76° East  Level Estimated
Tue 12:10:00 AM 38.8211 -115.7575 77° East  Level FlightAware Approximate
Tue 12:11:00 AM 38.8494 -115.5986 77° East  Level FlightAware Approximate
Tue 12:12:00 AM 38.8776 -115.4395 77° East  Level FlightAware Approximate
Tue 12:13:00 AM 38.9055 -115.2803 77° East  Level FlightAware Approximate
Tue 12:14:00 AM 38.9275 -115.1195 81° East  Level Estimated
Tue 12:15:00 AM 38.9492 -114.9585 77° East  Level Estimated
Tue 12:16:00 AM 38.9777 -114.7993 77° East  Level FlightAware Approximate
Tue 12:17:00 AM 39.0059 -114.6400 77° East  Level FlightAware Approximate
Tue 12:18:00 AM 39.0339 -114.4805 77° East  Level FlightAware Approximate
Tue 12:19:00 AM 39.0544 -114.3191 77° East  Level Estimated
Tue 12:20:00 AM 39.0831 -114.1597 77° East  Level FlightAware Approximate
Tue 12:21:00 AM 39.1116 -114.0002 77° East  Level FlightAware Approximate
Tue 12:22:00 AM 39.1311 -113.8384 78° East  Level Estimated
Tue 12:23:00 AM 39.1599 -113.6788 77° East  Level FlightAware Approximate
Tue 12:24:00 AM 39.1885 -113.5192 77° East  Level FlightAware Approximate
Tue 12:25:00 AM 39.2071 -113.3570 81° East  Level Estimated
Tue 12:26:00 AM 39.2353 -113.1972 77° East  Level FlightAware Approximate
Tue 12:27:00 AM 39.2634 -113.0372 77° East  Level FlightAware Approximate
Tue 12:28:00 AM 39.2912 -112.8771 77° East  Level FlightAware Approximate
Tue 12:29:00 AM 39.3083 -112.7144 77° East  Level Estimated
Tue 12:30:00 AM 39.3370 -112.5545 77° East  Level FlightAware Approximate
Tue 12:31:00 AM 39.3656 -112.3944 77° East  Level FlightAware Approximate
Tue 12:32:00 AM 39.3939 -112.2342 77° East  Level FlightAware Approximate
Tue 12:33:00 AM 39.4093 -112.0710 76° East  Level Estimated
Tue 12:34:00 AM 39.4386 -111.9110 77° East  Level FlightAware Approximate
Tue 12:35:00 AM 39.4677 -111.7508 77° East  Level FlightAware Approximate
Tue 12:36:00 AM 39.4967 -111.5906 77° East  Level FlightAware Approximate
Tue 12:37:00 AM 39.5101 -111.4269 90° East  Level Estimated
Tue 12:38:00 AM 39.5244 -111.2495 79° East  Level Estimated
Tue 12:39:00 AM 39.5384 -111.0720 75° East  Level Estimated
Tue 12:40:00 AM 39.5726 -110.8990 76° East  Level FlightAware Approximate
Tue 12:41:00 AM 39.6065 -110.7260 76° East  Level FlightAware Approximate
Tue 12:42:00 AM 39.6185 -110.5480 78° East  Level Estimated
Tue 12:43:00 AM 39.6302 -110.3700 81° East  Level Estimated
Tue 12:44:00 AM 39.6417 -110.1919 74° East  Level Estimated
Tue 12:45:00 AM 39.6529 -110.0138 106° East  Level Estimated
Tue 12:46:00 AM 39.6856 -109.8401 76° East  Level FlightAware Approximate
Tue 12:47:00 AM 39.6956 -109.6618 103° East  Level Estimated
Tue 12:48:00 AM 39.7052 -109.4834 90° East  Level Estimated
Tue 12:49:00 AM 39.7146 -109.3049 100° East  Level Estimated
Tue 12:50:00 AM 39.7237 -109.1264 99° East  Level Estimated
Tue 12:51:00 AM 39.7325 -108.9478 101° East  Level Estimated
Tue 12:52:00 AM 39.7411 -108.7692 170° South  Level Estimated
Tue 12:53:00 AM 39.7493 -108.5905 171° South  Level Estimated
Tue 12:54:00 AM 39.7576 -108.4118 87° East  Level FlightAware Approximate
Tue 12:55:00 AM 39.7653 -108.2331 180° South  Level Estimated
Tue 12:56:00 AM 39.7727 -108.0543 180° South  Level Estimated
Tue 12:57:00 AM 39.7799 -107.8755 180° South  Level Estimated
Tue 12:58:00 AM 39.7868 -107.6967 180° South  Level Estimated
Tue 12:59:00 AM 39.7934 -107.5178 180° South  Level Estimated
Tue 01:00:00 AM 39.7998 -107.3389 180° South  Level Estimated
Tue 01:01:00 AM 39.8058 -107.1599 180° South  Level Estimated
Tue 01:02:00 AM 39.8116 -106.9809 180° South  Level Estimated
Tue 01:03:00 AM 39.8172 -106.8019 180° South  Level Estimated
Tue 01:04:00 AM 39.8224 -106.6229 180° South  Level Estimated
Tue 01:05:00 AM 39.8274 -106.4438 180° South  Level Estimated
Tue 01:06:00 AM 39.8321 -106.2647 180° South  Level Estimated
Tue 01:07:00 AM 39.8365 -106.0856 180° South  Level Estimated
Tue 01:08:00 AM 39.8406 -105.9064 180° South  Level Estimated
Tue 01:09:00 AM 39.8445 -105.7273 180° South  Level Estimated
Tue 01:10:00 AM 39.8481 -105.5481 180° South  Level Estimated
Tue 01:11:00 AM 39.8514 -105.3689 180° South  Level Estimated
Tue 01:12:00 AM 39.8544 -105.1897 180° South  Level Estimated
Tue 01:13:00 AM 39.8572 -105.0105 180° South  Level Estimated
Tue 01:14:00 AM 39.8597 -104.8312 180° South  Level Estimated
Tue 01:15:00 AM 39.8500 -104.6667 180° South  Level FlightAware Approximate
Tue 01:16:00 AM 39.8617 -104.6732 180° South  Level Estimated
Tue 01:17:00 AM 39.8617 -104.6732 180° South  Level Estimated
Tue 01:18:00 AM 39.8617 -104.6732 180° South  Level Estimated
Tue 01:19:00 AM 39.8617 -104.6732 180° South  Level Estimated
Tue 01:20:00 AM 39.8617 -104.6732 180° South  Level Estimated
Tue 01:21:00 AM 39.8617 -104.6732 180° South  Level Estimated
Tue 01:22:00 AM 39.8617 -104.6732 180° South  Level Estimated
Tue 01:23:00 AM 39.8617 -104.6732 180° South  Level Estimated
Tue 01:24:00 AM 39.8617 -104.6732 180° South  Level Estimated
Tue 01:25:00 AM 39.8617 -104.6732 180° South  Level Estimated
Tue 01:26:00 AM 39.8617 -104.6732 180° South  Level Estimated
Tue 01:27:00 AM 39.8617 -104.6732 180° South  Level Estimated
Tue 01:28:00 AM 39.8617 -104.6732 180° South  Level Estimated
Tue 01:29:00 AM 39.8617 -104.6732 180° South  Level Estimated
Tue 01:30:00 AM 39.8617 -104.6732 180° South  Level Estimated
Tue 01:31:00 AM 39.8617 -104.6732 180° South  Level Estimated
Tue 01:32:00 AM 39.8617 -104.6732 180° South  Level Estimated

Login

Don't have an account? Register now (free) for customized features, flight alerts, and more!